sensor_id;sensor_type;location;lat;lon;timestamp;P1;durP1;ratioP1;P2;durP2;ratioP2
6519;SDS011;3293;51.690;5.982;2024-03-02T00:02:55;2.10;;;2.00;;
6519;SDS011;3293;51.690;5.982;2024-03-02T00:07:55;2.60;;;2.40;;
6519;SDS011;3293;51.690;5.982;2024-03-02T00:12:56;4.67;;;2.40;;
6519;SDS011;3293;51.690;5.982;2024-03-02T00:17:57;3.63;;;2.20;;
6519;SDS011;3293;51.690;5.982;2024-03-02T00:23:04;2.57;;;2.37;;
6519;SDS011;3293;51.690;5.982;2024-03-02T00:28:10;2.30;;;2.10;;
6519;SDS011;3293;51.690;5.982;2024-03-02T00:33:13;3.93;;;2.30;;
6519;SDS011;3293;51.690;5.982;2024-03-02T00:38:14;2.30;;;2.10;;
6519;SDS011;3293;51.690;5.982;2024-03-02T00:43:38;3.47;;;2.03;;
6519;SDS011;3293;51.690;5.982;2024-03-02T00:48:58;4.27;;;2.13;;
6519;SDS011;3293;51.690;5.982;2024-03-02T00:54:00;2.13;;;1.90;;
6519;SDS011;3293;51.690;5.982;2024-03-02T00:59:04;2.83;;;2.00;;
6519;SDS011;3293;51.690;5.982;2024-03-02T01:04:04;2.13;;;1.93;;
6519;SDS011;3293;51.690;5.982;2024-03-02T01:09:04;4.77;;;2.20;;
6519;SDS011;3293;51.690;5.982;2024-03-02T01:14:04;4.80;;;2.20;;
6519;SDS011;3293;51.690;5.982;2024-03-02T01:19:04;3.97;;;2.00;;
6519;SDS011;3293;51.690;5.982;2024-03-02T01:24:06;3.47;;;2.00;;
6519;SDS011;3293;51.690;5.982;2024-03-02T01:29:05;1.70;;;1.40;;
6519;SDS011;3293;51.690;5.982;2024-03-02T01:34:05;1.77;;;1.50;;
6519;SDS011;3293;51.690;5.982;2024-03-02T01:39:05;1.37;;;1.27;;
6519;SDS011;3293;51.690;5.982;2024-03-02T01:44:08;1.30;;;1.20;;
6519;SDS011;3293;51.690;5.982;2024-03-02T01:49:08;1.17;;;1.10;;
6519;SDS011;3293;51.690;5.982;2024-03-02T01:54:08;1.07;;;0.80;;
6519;SDS011;3293;51.690;5.982;2024-03-02T01:59:08;1.00;;;1.00;;
6519;SDS011;3293;51.690;5.982;2024-03-02T02:04:08;1.03;;;1.00;;
6519;SDS011;3293;51.690;5.982;2024-03-02T02:09:08;1.20;;;1.10;;
6519;SDS011;3293;51.690;5.982;2024-03-02T02:14:08;1.20;;;1.10;;
6519;SDS011;3293;51.690;5.982;2024-03-02T02:19:08;1.80;;;1.30;;
6519;SDS011;3293;51.690;5.982;2024-03-02T02:24:08;1.37;;;1.27;;
6519;SDS011;3293;51.690;5.982;2024-03-02T02:29:08;1.60;;;1.10;;
6519;SDS011;3293;51.690;5.982;2024-03-02T02:34:08;1.20;;;1.03;;
6519;SDS011;3293;51.690;5.982;2024-03-02T02:39:10;1.20;;;1.10;;
6519;SDS011;3293;51.690;5.982;2024-03-02T02:44:12;1.57;;;1.20;;
6519;SDS011;3293;51.690;5.982;2024-03-02T02:49:12;1.17;;;1.17;;
6519;SDS011;3293;51.690;5.982;2024-03-02T02:54:12;1.07;;;1.03;;
6519;SDS011;3293;51.690;5.982;2024-03-02T02:59:12;1.20;;;1.20;;
6519;SDS011;3293;51.690;5.982;2024-03-02T03:04:12;1.60;;;1.10;;
6519;SDS011;3293;51.690;5.982;2024-03-02T03:09:12;1.20;;;1.20;;
6519;SDS011;3293;51.690;5.982;2024-03-02T03:14:12;2.53;;;1.33;;
6519;SDS011;3293;51.690;5.982;2024-03-02T03:19:12;1.23;;;1.23;;
6519;SDS011;3293;51.690;5.982;2024-03-02T03:24:11;1.10;;;1.10;;
6519;SDS011;3293;51.690;5.982;2024-03-02T03:29:11;1.10;;;1.10;;
6519;SDS011;3293;51.690;5.982;2024-03-02T03:34:11;1.40;;;1.30;;
6519;SDS011;3293;51.690;5.982;2024-03-02T03:39:15;1.47;;;1.37;;
6519;SDS011;3293;51.690;5.982;2024-03-02T03:44:15;1.43;;;1.30;;
6519;SDS011;3293;51.690;5.982;2024-03-02T03:49:15;1.50;;;1.40;;
6519;SDS011;3293;51.690;5.982;2024-03-02T03:54:15;1.20;;;1.20;;
6519;SDS011;3293;51.690;5.982;2024-03-02T03:59:15;2.10;;;1.30;;
6519;SDS011;3293;51.690;5.982;2024-03-02T04:04:14;1.40;;;1.30;;
6519;SDS011;3293;51.690;5.982;2024-03-02T04:09:14;1.47;;;1.33;;
6519;SDS011;3293;51.690;5.982;2024-03-02T04:14:14;1.17;;;1.17;;
6519;SDS011;3293;51.690;5.982;2024-03-02T04:19:14;1.07;;;1.07;;
6519;SDS011;3293;51.690;5.982;2024-03-02T04:24:14;1.20;;;1.10;;
6519;SDS011;3293;51.690;5.982;2024-03-02T04:29:14;1.50;;;1.40;;
6519;SDS011;3293;51.690;5.982;2024-03-02T04:34:14;1.30;;;1.30;;
6519;SDS011;3293;51.690;5.982;2024-03-02T04:39:14;1.40;;;1.30;;
6519;SDS011;3293;51.690;5.982;2024-03-02T04:44:13;1.27;;;1.27;;
6519;SDS011;3293;51.690;5.982;2024-03-02T04:49:13;1.10;;;1.00;;
6519;SDS011;3293;51.690;5.982;2024-03-02T04:54:13;1.30;;;1.20;;
6519;SDS011;3293;51.690;5.982;2024-03-02T04:59:13;1.90;;;1.20;;
6519;SDS011;3293;51.690;5.982;2024-03-02T05:04:13;1.23;;;1.10;;
6519;SDS011;3293;51.690;5.982;2024-03-02T05:09:13;1.70;;;1.33;;
6519;SDS011;3293;51.690;5.982;2024-03-02T05:14:13;1.27;;;1.20;;
6519;SDS011;3293;51.690;5.982;2024-03-02T05:19:13;1.27;;;1.23;;
6519;SDS011;3293;51.690;5.982;2024-03-02T05:24:13;3.60;;;1.30;;
6519;SDS011;3293;51.690;5.982;2024-03-02T05:29:13;1.37;;;1.20;;
6519;SDS011;3293;51.690;5.982;2024-03-02T05:34:13;1.70;;;1.60;;
6519;SDS011;3293;51.690;5.982;2024-03-02T05:39:13;3.60;;;1.43;;
6519;SDS011;3293;51.690;5.982;2024-03-02T05:44:13;1.83;;;1.40;;
6519;SDS011;3293;51.690;5.982;2024-03-02T05:49:14;2.13;;;1.30;;
6519;SDS011;3293;51.690;5.982;2024-03-02T05:54:14;1.57;;;1.33;;
6519;SDS011;3293;51.690;5.982;2024-03-02T05:59:14;1.80;;;1.53;;
6519;SDS011;3293;51.690;5.982;2024-03-02T06:04:15;1.83;;;1.43;;
6519;SDS011;3293;51.690;5.982;2024-03-02T06:09:15;2.00;;;1.23;;
6519;SDS011;3293;51.690;5.982;2024-03-02T06:14:15;2.03;;;1.80;;
6519;SDS011;3293;51.690;5.982;2024-03-02T06:19:16;1.50;;;1.40;;
6519;SDS011;3293;51.690;5.982;2024-03-02T06:24:15;1.20;;;1.20;;
6519;SDS011;3293;51.690;5.982;2024-03-02T06:29:15;1.70;;;1.60;;
6519;SDS011;3293;51.690;5.982;2024-03-02T06:34:15;1.47;;;1.37;;
6519;SDS011;3293;51.690;5.982;2024-03-02T06:39:15;3.77;;;1.67;;
6519;SDS011;3293;51.690;5.982;2024-03-02T06:44:15;2.50;;;1.53;;
6519;SDS011;3293;51.690;5.982;2024-03-02T06:49:15;1.70;;;1.60;;
6519;SDS011;3293;51.690;5.982;2024-03-02T06:54:17;2.90;;;1.50;;
6519;SDS011;3293;51.690;5.982;2024-03-02T06:59:17;2.00;;;1.77;;
6519;SDS011;3293;51.690;5.982;2024-03-02T07:04:17;1.50;;;1.40;;
6519;SDS011;3293;51.690;5.982;2024-03-02T07:09:17;1.80;;;1.37;;
6519;SDS011;3293;51.690;5.982;2024-03-02T07:14:17;3.30;;;1.70;;
6519;SDS011;3293;51.690;5.982;2024-03-02T07:19:17;1.80;;;1.70;;
6519;SDS011;3293;51.690;5.982;2024-03-02T07:24:17;2.07;;;1.70;;
6519;SDS011;3293;51.690;5.982;2024-03-02T07:29:17;2.37;;;1.60;;
6519;SDS011;3293;51.690;5.982;2024-03-02T07:34:17;1.37;;;1.37;;
6519;SDS011;3293;51.690;5.982;2024-03-02T07:39:17;1.63;;;1.53;;
6519;SDS011;3293;51.690;5.982;2024-03-02T07:44:19;2.50;;;1.70;;
6519;SDS011;3293;51.690;5.982;2024-03-02T07:49:19;1.77;;;1.67;;
6519;SDS011;3293;51.690;5.982;2024-03-02T07:54:20;1.77;;;1.67;;
6519;SDS011;3293;51.690;5.982;2024-03-02T07:59:19;3.90;;;1.50;;
6519;SDS011;3293;51.690;5.982;2024-03-02T08:04:21;1.70;;;1.50;;
6519;SDS011;3293;51.690;5.982;2024-03-02T08:09:22;2.47;;;1.40;;
6519;SDS011;3293;51.690;5.982;2024-03-02T08:14:21;1.40;;;1.30;;
6519;SDS011;3293;51.690;5.982;2024-03-02T08:19:22;2.27;;;1.30;;
6519;SDS011;3293;51.690;5.982;2024-03-02T08:24:22;2.73;;;1.80;;
6519;SDS011;3293;51.690;5.982;2024-03-02T08:29:22;2.30;;;1.40;;
6519;SDS011;3293;51.690;5.982;2024-03-02T08:34:22;2.93;;;1.30;;
6519;SDS011;3293;51.690;5.982;2024-03-02T08:39:22;1.50;;;1.20;;
6519;SDS011;3293;51.690;5.982;2024-03-02T08:44:22;3.33;;;1.57;;
6519;SDS011;3293;51.690;5.982;2024-03-02T08:49:22;2.60;;;1.40;;
6519;SDS011;3293;51.690;5.982;2024-03-02T08:54:22;2.03;;;1.37;;
6519;SDS011;3293;51.690;5.982;2024-03-02T08:59:22;3.70;;;1.80;;
6519;SDS011;3293;51.690;5.982;2024-03-02T09:04:22;2.77;;;1.50;;
6519;SDS011;3293;51.690;5.982;2024-03-02T09:09:21;5.63;;;1.53;;
6519;SDS011;3293;51.690;5.982;2024-03-02T09:14:22;5.93;;;1.53;;
6519;SDS011;3293;51.690;5.982;2024-03-02T09:19:22;5.60;;;1.83;;
6519;SDS011;3293;51.690;5.982;2024-03-02T09:24:22;3.90;;;1.60;;
6519;SDS011;3293;51.690;5.982;2024-03-02T09:29:22;2.53;;;1.50;;
6519;SDS011;3293;51.690;5.982;2024-03-02T09:34:22;2.27;;;1.67;;
6519;SDS011;3293;51.690;5.982;2024-03-02T09:39:22;3.83;;;1.60;;
6519;SDS011;3293;51.690;5.982;2024-03-02T09:44:22;2.70;;;1.60;;
6519;SDS011;3293;51.690;5.982;2024-03-02T09:49:22;2.47;;;1.60;;
6519;SDS011;3293;51.690;5.982;2024-03-02T09:54:22;3.50;;;1.43;;
6519;SDS011;3293;51.690;5.982;2024-03-02T09:59:22;2.97;;;1.40;;
6519;SDS011;3293;51.690;5.982;2024-03-02T10:04:22;2.40;;;1.73;;
6519;SDS011;3293;51.690;5.982;2024-03-02T10:09:27;4.27;;;1.60;;
6519;SDS011;3293;51.690;5.982;2024-03-02T10:14:28;4.77;;;1.67;;
6519;SDS011;3293;51.690;5.982;2024-03-02T10:19:28;2.63;;;1.70;;
6519;SDS011;3293;51.690;5.982;2024-03-02T10:24:36;3.33;;;1.73;;
6519;SDS011;3293;51.690;5.982;2024-03-02T10:29:46;3.23;;;1.50;;
6519;SDS011;3293;51.690;5.982;2024-03-02T10:34:46;4.00;;;1.50;;
6519;SDS011;3293;51.690;5.982;2024-03-02T10:39:47;2.87;;;1.60;;
6519;SDS011;3293;51.690;5.982;2024-03-02T10:44:47;1.87;;;1.40;;
6519;SDS011;3293;51.690;5.982;2024-03-02T10:49:48;1.50;;;1.40;;
6519;SDS011;3293;51.690;5.982;2024-03-02T10:54:50;1.83;;;1.20;;
6519;SDS011;3293;51.690;5.982;2024-03-02T10:59:52;4.10;;;1.70;;
6519;SDS011;3293;51.690;5.982;2024-03-02T11:04:55;2.17;;;1.20;;
6519;SDS011;3293;51.690;5.982;2024-03-02T11:09:59;3.03;;;1.50;;
6519;SDS011;3293;51.690;5.982;2024-03-02T11:15:10;2.63;;;1.50;;
6519;SDS011;3293;51.690;5.982;2024-03-02T11:20:11;2.20;;;1.30;;
6519;SDS011;3293;51.690;5.982;2024-03-02T11:25:24;2.47;;;1.43;;
6519;SDS011;3293;51.690;5.982;2024-03-02T11:35:31;1.70;;;1.50;;
6519;SDS011;3293;51.690;5.982;2024-03-02T11:40:31;2.47;;;1.40;;
6519;SDS011;3293;51.690;5.982;2024-03-02T11:45:31;2.60;;;1.83;;
6519;SDS011;3293;51.690;5.982;2024-03-02T11:50:36;1.40;;;1.30;;
6519;SDS011;3293;51.690;5.982;2024-03-02T11:55:40;2.23;;;1.60;;
6519;SDS011;3293;51.690;5.982;2024-03-02T12:00:44;2.37;;;1.60;;
6519;SDS011;3293;51.690;5.982;2024-03-02T12:05:44;1.80;;;1.70;;
6519;SDS011;3293;51.690;5.982;2024-03-02T12:10:56;1.57;;;1.47;;
6519;SDS011;3293;51.690;5.982;2024-03-02T12:15:57;2.83;;;2.13;;
6519;SDS011;3293;51.690;5.982;2024-03-02T12:20:57;4.33;;;2.07;;
6519;SDS011;3293;51.690;5.982;2024-03-02T12:25:57;2.90;;;1.67;;
6519;SDS011;3293;51.690;5.982;2024-03-02T12:30:59;1.20;;;1.20;;
6519;SDS011;3293;51.690;5.982;2024-03-02T12:35:59;4.33;;;1.63;;
6519;SDS011;3293;51.690;5.982;2024-03-02T12:40:59;3.93;;;1.60;;
6519;SDS011;3293;51.690;5.982;2024-03-02T12:45:59;2.67;;;1.70;;
6519;SDS011;3293;51.690;5.982;2024-03-02T12:50:59;5.87;;;1.93;;
6519;SDS011;3293;51.690;5.982;2024-03-02T12:55:59;2.97;;;1.70;;
6519;SDS011;3293;51.690;5.982;2024-03-02T13:01:07;2.03;;;1.67;;
6519;SDS011;3293;51.690;5.982;2024-03-02T13:06:10;2.90;;;1.70;;
6519;SDS011;3293;51.690;5.982;2024-03-02T13:11:10;4.60;;;1.77;;
6519;SDS011;3293;51.690;5.982;2024-03-02T13:16:10;4.50;;;2.07;;
6519;SDS011;3293;51.690;5.982;2024-03-02T13:21:11;4.60;;;1.60;;
6519;SDS011;3293;51.690;5.982;2024-03-02T13:26:11;4.73;;;1.90;;
6519;SDS011;3293;51.690;5.982;2024-03-02T13:31:12;4.63;;;1.77;;
6519;SDS011;3293;51.690;5.982;2024-03-02T13:36:12;3.30;;;1.87;;
6519;SDS011;3293;51.690;5.982;2024-03-02T13:41:12;4.40;;;1.70;;
6519;SDS011;3293;51.690;5.982;2024-03-02T13:46:12;4.13;;;1.60;;
6519;SDS011;3293;51.690;5.982;2024-03-02T13:51:12;2.77;;;1.40;;
6519;SDS011;3293;51.690;5.982;2024-03-02T13:56:12;2.20;;;1.47;;
6519;SDS011;3293;51.690;5.982;2024-03-02T14:01:12;3.30;;;1.73;;
6519;SDS011;3293;51.690;5.982;2024-03-02T14:06:12;1.57;;;1.47;;
6519;SDS011;3293;51.690;5.982;2024-03-02T14:11:13;4.27;;;1.70;;
6519;SDS011;3293;51.690;5.982;2024-03-02T14:16:14;2.23;;;1.73;;
6519;SDS011;3293;51.690;5.982;2024-03-02T14:21:14;3.17;;;1.40;;
6519;SDS011;3293;51.690;5.982;2024-03-02T14:26:14;2.93;;;1.50;;
6519;SDS011;3293;51.690;5.982;2024-03-02T14:31:14;2.80;;;1.60;;
6519;SDS011;3293;51.690;5.982;2024-03-02T14:36:14;2.53;;;1.67;;
6519;SDS011;3293;51.690;5.982;2024-03-02T14:41:14;3.80;;;1.70;;
6519;SDS011;3293;51.690;5.982;2024-03-02T14:46:14;3.67;;;1.63;;
6519;SDS011;3293;51.690;5.982;2024-03-02T14:51:15;3.43;;;1.73;;
6519;SDS011;3293;51.690;5.982;2024-03-02T14:56:15;2.70;;;1.80;;
6519;SDS011;3293;51.690;5.982;2024-03-02T15:01:15;4.50;;;1.70;;
6519;SDS011;3293;51.690;5.982;2024-03-02T15:06:15;1.40;;;1.30;;
6519;SDS011;3293;51.690;5.982;2024-03-02T15:11:15;3.47;;;1.87;;
6519;SDS011;3293;51.690;5.982;2024-03-02T15:16:15;2.70;;;2.20;;
6519;SDS011;3293;51.690;5.982;2024-03-02T15:21:15;2.17;;;1.80;;
6519;SDS011;3293;51.690;5.982;2024-03-02T15:26:15;1.70;;;1.60;;
6519;SDS011;3293;51.690;5.982;2024-03-02T15:31:15;3.43;;;1.97;;
6519;SDS011;3293;51.690;5.982;2024-03-02T15:36:16;2.27;;;1.60;;
6519;SDS011;3293;51.690;5.982;2024-03-02T15:41:16;4.10;;;1.70;;
6519;SDS011;3293;51.690;5.982;2024-03-02T15:46:16;2.33;;;2.00;;
6519;SDS011;3293;51.690;5.982;2024-03-02T15:51:16;4.23;;;2.30;;
6519;SDS011;3293;51.690;5.982;2024-03-02T15:56:16;3.43;;;2.30;;
6519;SDS011;3293;51.690;5.982;2024-03-02T16:01:16;3.63;;;2.10;;
6519;SDS011;3293;51.690;5.982;2024-03-02T16:06:17;4.33;;;2.97;;
6519;SDS011;3293;51.690;5.982;2024-03-02T16:11:17;4.17;;;2.60;;
6519;SDS011;3293;51.690;5.982;2024-03-02T16:16:17;2.83;;;2.40;;
6519;SDS011;3293;51.690;5.982;2024-03-02T16:21:17;6.00;;;3.30;;
6519;SDS011;3293;51.690;5.982;2024-03-02T16:26:19;6.27;;;2.97;;
6519;SDS011;3293;51.690;5.982;2024-03-02T16:31:19;3.87;;;2.40;;
6519;SDS011;3293;51.690;5.982;2024-03-02T16:36:19;5.87;;;2.50;;
6519;SDS011;3293;51.690;5.982;2024-03-02T16:41:19;2.23;;;1.90;;
6519;SDS011;3293;51.690;5.982;2024-03-02T16:46:19;2.17;;;1.97;;
6519;SDS011;3293;51.690;5.982;2024-03-02T16:51:19;3.57;;;2.40;;
6519;SDS011;3293;51.690;5.982;2024-03-02T16:56:19;2.90;;;2.30;;
6519;SDS011;3293;51.690;5.982;2024-03-02T17:01:19;4.43;;;2.10;;
6519;SDS011;3293;51.690;5.982;2024-03-02T17:06:18;3.17;;;2.70;;
6519;SDS011;3293;51.690;5.982;2024-03-02T17:11:18;4.30;;;2.47;;
6519;SDS011;3293;51.690;5.982;2024-03-02T17:16:18;2.03;;;1.93;;
6519;SDS011;3293;51.690;5.982;2024-03-02T17:21:18;3.17;;;2.37;;
6519;SDS011;3293;51.690;5.982;2024-03-02T17:26:18;6.23;;;2.67;;
6519;SDS011;3293;51.690;5.982;2024-03-02T17:31:18;3.83;;;2.57;;
6519;SDS011;3293;51.690;5.982;2024-03-02T17:36:18;4.57;;;2.70;;
6519;SDS011;3293;51.690;5.982;2024-03-02T17:41:18;5.73;;;2.83;;
6519;SDS011;3293;51.690;5.982;2024-03-02T17:46:18;4.40;;;2.63;;
6519;SDS011;3293;51.690;5.982;2024-03-02T17:51:18;5.20;;;2.90;;
6519;SDS011;3293;51.690;5.982;2024-03-02T17:56:18;6.77;;;3.23;;
6519;SDS011;3293;51.690;5.982;2024-03-02T18:01:18;3.60;;;2.30;;
6519;SDS011;3293;51.690;5.982;2024-03-02T18:06:18;2.57;;;2.30;;
6519;SDS011;3293;51.690;5.982;2024-03-02T18:11:18;2.50;;;2.20;;
6519;SDS011;3293;51.690;5.982;2024-03-02T18:16:18;2.63;;;2.40;;
6519;SDS011;3293;51.690;5.982;2024-03-02T18:21:18;2.50;;;2.27;;
6519;SDS011;3293;51.690;5.982;2024-03-02T18:26:18;3.40;;;2.23;;
6519;SDS011;3293;51.690;5.982;2024-03-02T18:31:18;2.33;;;2.10;;
6519;SDS011;3293;51.690;5.982;2024-03-02T18:36:21;2.80;;;2.33;;
6519;SDS011;3293;51.690;5.982;2024-03-02T18:41:21;2.60;;;2.23;;
6519;SDS011;3293;51.690;5.982;2024-03-02T18:46:21;2.60;;;2.30;;
6519;SDS011;3293;51.690;5.982;2024-03-02T18:51:21;2.43;;;2.23;;
6519;SDS011;3293;51.690;5.982;2024-03-02T18:56:22;2.87;;;2.30;;
6519;SDS011;3293;51.690;5.982;2024-03-02T19:01:22;3.70;;;2.63;;
6519;SDS011;3293;51.690;5.982;2024-03-02T19:06:22;4.33;;;2.83;;
6519;SDS011;3293;51.690;5.982;2024-03-02T19:11:22;4.67;;;2.70;;
6519;SDS011;3293;51.690;5.982;2024-03-02T19:16:22;2.40;;;2.03;;
6519;SDS011;3293;51.690;5.982;2024-03-02T19:21:22;2.60;;;2.40;;
6519;SDS011;3293;51.690;5.982;2024-03-02T19:26:22;2.57;;;2.37;;
6519;SDS011;3293;51.690;5.982;2024-03-02T19:31:23;5.30;;;2.63;;
6519;SDS011;3293;51.690;5.982;2024-03-02T19:36:23;3.73;;;2.90;;
6519;SDS011;3293;51.690;5.982;2024-03-02T19:41:24;3.40;;;2.30;;
6519;SDS011;3293;51.690;5.982;2024-03-02T19:46:24;4.03;;;2.17;;
6519;SDS011;3293;51.690;5.982;2024-03-02T19:51:24;2.50;;;2.30;;
6519;SDS011;3293;51.690;5.982;2024-03-02T19:56:23;2.30;;;2.10;;
6519;SDS011;3293;51.690;5.982;2024-03-02T20:01:23;3.17;;;2.27;;
6519;SDS011;3293;51.690;5.982;2024-03-02T20:06:23;4.93;;;2.93;;
6519;SDS011;3293;51.690;5.982;2024-03-02T20:11:23;3.70;;;3.30;;
6519;SDS011;3293;51.690;5.982;2024-03-02T20:16:23;2.90;;;2.50;;
6519;SDS011;3293;51.690;5.982;2024-03-02T20:21:23;3.13;;;2.33;;
6519;SDS011;3293;51.690;5.982;2024-03-02T20:26:24;2.77;;;2.50;;
6519;SDS011;3293;51.690;5.982;2024-03-02T20:31:23;4.27;;;3.10;;
6519;SDS011;3293;51.690;5.982;2024-03-02T20:36:23;4.07;;;3.03;;
6519;SDS011;3293;51.690;5.982;2024-03-02T20:41:23;4.20;;;2.87;;
6519;SDS011;3293;51.690;5.982;2024-03-02T20:46:23;3.10;;;2.80;;
6519;SDS011;3293;51.690;5.982;2024-03-02T20:51:23;3.33;;;3.00;;
6519;SDS011;3293;51.690;5.982;2024-03-02T20:56:33;3.20;;;2.70;;
6519;SDS011;3293;51.690;5.982;2024-03-02T21:01:40;3.20;;;2.37;;
6519;SDS011;3293;51.690;5.982;2024-03-02T21:06:40;3.87;;;2.73;;
6519;SDS011;3293;51.690;5.982;2024-03-02T21:11:41;4.43;;;3.00;;
6519;SDS011;3293;51.690;5.982;2024-03-02T21:16:43;4.80;;;3.60;;
6519;SDS011;3293;51.690;5.982;2024-03-02T21:21:43;3.23;;;2.90;;
6519;SDS011;3293;51.690;5.982;2024-03-02T21:26:43;5.27;;;3.40;;
6519;SDS011;3293;51.690;5.982;2024-03-02T21:31:43;3.73;;;2.83;;
6519;SDS011;3293;51.690;5.982;2024-03-02T21:36:43;3.73;;;2.80;;
6519;SDS011;3293;51.690;5.982;2024-03-02T21:41:43;4.53;;;3.20;;
6519;SDS011;3293;51.690;5.982;2024-03-02T21:46:47;4.83;;;3.33;;
6519;SDS011;3293;51.690;5.982;2024-03-02T21:51:47;4.33;;;3.37;;
6519;SDS011;3293;51.690;5.982;2024-03-02T21:56:47;3.57;;;3.23;;
6519;SDS011;3293;51.690;5.982;2024-03-02T22:01:47;3.80;;;3.40;;
6519;SDS011;3293;51.690;5.982;2024-03-02T22:06:47;4.57;;;3.20;;
6519;SDS011;3293;51.690;5.982;2024-03-02T22:11:47;4.77;;;3.17;;
6519;SDS011;3293;51.690;5.982;2024-03-02T22:16:46;4.33;;;3.13;;
6519;SDS011;3293;51.690;5.982;2024-03-02T22:21:46;3.87;;;3.47;;
6519;SDS011;3293;51.690;5.982;2024-03-02T22:26:46;3.73;;;3.33;;
6519;SDS011;3293;51.690;5.982;2024-03-02T22:31:46;3.87;;;3.13;;
6519;SDS011;3293;51.690;5.982;2024-03-02T22:36:46;3.90;;;3.17;;
6519;SDS011;3293;51.690;5.982;2024-03-02T22:41:46;4.57;;;3.67;;
6519;SDS011;3293;51.690;5.982;2024-03-02T22:46:46;3.87;;;3.40;;
6519;SDS011;3293;51.690;5.982;2024-03-02T22:51:46;4.30;;;3.60;;
6519;SDS011;3293;51.690;5.982;2024-03-02T22:56:46;4.83;;;3.43;;
6519;SDS011;3293;51.690;5.982;2024-03-02T23:01:45;3.83;;;3.23;;
6519;SDS011;3293;51.690;5.982;2024-03-02T23:06:45;3.50;;;3.20;;
6519;SDS011;3293;51.690;5.982;2024-03-02T23:11:45;3.80;;;3.50;;
6519;SDS011;3293;51.690;5.982;2024-03-02T23:16:45;4.07;;;3.53;;
6519;SDS011;3293;51.690;5.982;2024-03-02T23:21:46;4.30;;;3.40;;
6519;SDS011;3293;51.690;5.982;2024-03-02T23:26:46;3.60;;;3.20;;
6519;SDS011;3293;51.690;5.982;2024-03-02T23:31:46;7.13;;;3.87;;
6519;SDS011;3293;51.690;5.982;2024-03-02T23:36:46;6.13;;;4.10;;
6519;SDS011;3293;51.690;5.982;2024-03-02T23:41:46;4.97;;;3.90;;
6519;SDS011;3293;51.690;5.982;2024-03-02T23:46:46;4.97;;;4.00;;
6519;SDS011;3293;51.690;5.982;2024-03-02T23:51:45;4.40;;;4.00;;
6519;SDS011;3293;51.690;5.982;2024-03-02T23:56:45;4.73;;;4.10;;
